sensor_id;sensor_type;location;lat;lon;timestamp;temperature;humidity
36652;DHT22;53334;51.976;20.144;2024-01-30T00:01:25;25.50;38.30
36652;DHT22;53334;51.976;20.144;2024-01-30T00:03:58;25.50;38.20
36652;DHT22;53334;51.976;20.144;2024-01-30T00:06:32;25.50;38.20
36652;DHT22;53334;51.976;20.144;2024-01-30T00:09:05;25.50;38.20
36652;DHT22;53334;51.976;20.144;2024-01-30T00:11:38;25.50;38.20
36652;DHT22;53334;51.976;20.144;2024-01-30T00:14:13;25.50;38.70
36652;DHT22;53334;51.976;20.144;2024-01-30T00:16:46;25.50;38.10
36652;DHT22;53334;51.976;20.144;2024-01-30T00:19:20;25.50;38.10
36652;DHT22;53334;51.976;20.144;2024-01-30T00:21:53;25.50;38.10
36652;DHT22;53334;51.976;20.144;2024-01-30T00:24:26;25.50;38.10
36652;DHT22;53334;51.976;20.144;2024-01-30T00:26:59;25.50;38.10
36652;DHT22;53334;51.976;20.144;2024-01-30T00:29:34;25.50;38.10
36652;DHT22;53334;51.976;20.144;2024-01-30T00:32:07;25.50;38.10
36652;DHT22;53334;51.976;20.144;2024-01-30T00:34:41;25.50;38.10
36652;DHT22;53334;51.976;20.144;2024-01-30T00:37:15;25.50;38.10
36652;DHT22;53334;51.976;20.144;2024-01-30T00:39:48;25.50;38.10
36652;DHT22;53334;51.976;20.144;2024-01-30T00:42:22;25.50;38.10
36652;DHT22;53334;51.976;20.144;2024-01-30T00:44:57;25.50;38.10
36652;DHT22;53334;51.976;20.144;2024-01-30T00:47:30;25.50;38.10
36652;DHT22;53334;51.976;20.144;2024-01-30T00:50:05;25.50;38.20
36652;DHT22;53334;51.976;20.144;2024-01-30T00:52:39;25.50;38.10
36652;DHT22;53334;51.976;20.144;2024-01-30T00:55:13;25.50;38.00
36652;DHT22;53334;51.976;20.144;2024-01-30T00:57:47;25.50;38.00
36652;DHT22;53334;51.976;20.144;2024-01-30T01:00:21;25.50;38.00
36652;DHT22;53334;51.976;20.144;2024-01-30T01:03:01;25.50;38.00
36652;DHT22;53334;51.976;20.144;2024-01-30T01:05:34;25.50;38.00
36652;DHT22;53334;51.976;20.144;2024-01-30T01:08:07;25.50;38.10
36652;DHT22;53334;51.976;20.144;2024-01-30T01:10:41;25.50;38.00
36652;DHT22;53334;51.976;20.144;2024-01-30T01:13:14;25.50;38.00
36652;DHT22;53334;51.976;20.144;2024-01-30T01:15:49;25.50;38.00
36652;DHT22;53334;51.976;20.144;2024-01-30T01:18:22;25.50;38.00
36652;DHT22;53334;51.976;20.144;2024-01-30T01:20:55;25.50;38.00
36652;DHT22;53334;51.976;20.144;2024-01-30T01:23:28;25.50;38.00
36652;DHT22;53334;51.976;20.144;2024-01-30T01:26:02;25.50;38.00
36652;DHT22;53334;51.976;20.144;2024-01-30T01:28:35;25.50;38.00
36652;DHT22;53334;51.976;20.144;2024-01-30T01:31:10;25.50;38.00
36652;DHT22;53334;51.976;20.144;2024-01-30T01:33:43;25.50;38.00
36652;DHT22;53334;51.976;20.144;2024-01-30T01:36:17;25.50;38.00
36652;DHT22;53334;51.976;20.144;2024-01-30T01:38:50;25.50;37.90
36652;DHT22;53334;51.976;20.144;2024-01-30T01:41:23;25.50;37.90
36652;DHT22;53334;51.976;20.144;2024-01-30T01:43:56;25.50;37.90
36652;DHT22;53334;51.976;20.144;2024-01-30T01:46:33;25.50;37.90
36652;DHT22;53334;51.976;20.144;2024-01-30T01:49:07;25.50;37.80
36652;DHT22;53334;51.976;20.144;2024-01-30T01:51:42;25.50;37.80
36652;DHT22;53334;51.976;20.144;2024-01-30T01:54:17;25.50;37.80
36652;DHT22;53334;51.976;20.144;2024-01-30T01:56:50;25.50;37.80
36652;DHT22;53334;51.976;20.144;2024-01-30T01:59:24;25.50;37.90
36652;DHT22;53334;51.976;20.144;2024-01-30T02:01:59;25.50;37.80
36652;DHT22;53334;51.976;20.144;2024-01-30T02:04:34;25.50;37.80
36652;DHT22;53334;51.976;20.144;2024-01-30T02:07:08;25.50;38.40
36652;DHT22;53334;51.976;20.144;2024-01-30T02:09:41;25.50;37.90
36652;DHT22;53334;51.976;20.144;2024-01-30T02:12:14;25.50;37.80
36652;DHT22;53334;51.976;20.144;2024-01-30T02:14:48;25.50;37.80
36652;DHT22;53334;51.976;20.144;2024-01-30T02:17:24;25.50;37.80
36652;DHT22;53334;51.976;20.144;2024-01-30T02:19:57;25.50;37.70
36652;DHT22;53334;51.976;20.144;2024-01-30T02:22:33;25.50;37.70
36652;DHT22;53334;51.976;20.144;2024-01-30T02:25:07;25.50;37.70
36652;DHT22;53334;51.976;20.144;2024-01-30T02:27:41;25.50;37.70
36652;DHT22;53334;51.976;20.144;2024-01-30T02:30:14;25.50;37.70
36652;DHT22;53334;51.976;20.144;2024-01-30T02:32:48;25.50;37.70
36652;DHT22;53334;51.976;20.144;2024-01-30T02:35:21;25.50;37.70
36652;DHT22;53334;51.976;20.144;2024-01-30T02:37:55;25.50;37.70
36652;DHT22;53334;51.976;20.144;2024-01-30T02:40:29;25.50;37.70
36652;DHT22;53334;51.976;20.144;2024-01-30T02:43:03;25.50;37.80
36652;DHT22;53334;51.976;20.144;2024-01-30T02:45:36;25.50;37.80
36652;DHT22;53334;51.976;20.144;2024-01-30T02:48:09;25.50;37.80
36652;DHT22;53334;51.976;20.144;2024-01-30T02:50:43;25.50;37.80
36652;DHT22;53334;51.976;20.144;2024-01-30T02:53:17;25.50;37.70
36652;DHT22;53334;51.976;20.144;2024-01-30T02:55:50;25.50;37.70
36652;DHT22;53334;51.976;20.144;2024-01-30T02:58:23;25.50;37.70
36652;DHT22;53334;51.976;20.144;2024-01-30T03:00:57;25.50;37.60
36652;DHT22;53334;51.976;20.144;2024-01-30T03:03:30;25.50;37.60
36652;DHT22;53334;51.976;20.144;2024-01-30T03:06:04;25.50;37.60
36652;DHT22;53334;51.976;20.144;2024-01-30T03:08:39;25.50;37.60
36652;DHT22;53334;51.976;20.144;2024-01-30T03:11:12;25.50;37.60
36652;DHT22;53334;51.976;20.144;2024-01-30T03:13:45;25.50;37.50
36652;DHT22;53334;51.976;20.144;2024-01-30T03:16:19;25.50;37.50
36652;DHT22;53334;51.976;20.144;2024-01-30T03:18:52;25.50;37.50
36652;DHT22;53334;51.976;20.144;2024-01-30T03:21:25;25.50;37.50
36652;DHT22;53334;51.976;20.144;2024-01-30T03:24:00;25.50;37.60
36652;DHT22;53334;51.976;20.144;2024-01-30T03:26:33;25.50;37.50
36652;DHT22;53334;51.976;20.144;2024-01-30T03:29:06;25.50;37.50
36652;DHT22;53334;51.976;20.144;2024-01-30T03:31:39;25.50;37.50
36652;DHT22;53334;51.976;20.144;2024-01-30T03:34:13;25.50;37.50
36652;DHT22;53334;51.976;20.144;2024-01-30T03:36:46;25.50;37.50
36652;DHT22;53334;51.976;20.144;2024-01-30T03:39:21;25.50;37.50
36652;DHT22;53334;51.976;20.144;2024-01-30T03:41:54;25.50;37.50
36652;DHT22;53334;51.976;20.144;2024-01-30T03:44:28;25.50;37.50
36652;DHT22;53334;51.976;20.144;2024-01-30T03:47:01;25.50;37.60
36652;DHT22;53334;51.976;20.144;2024-01-30T03:49:34;25.50;37.50
36652;DHT22;53334;51.976;20.144;2024-01-30T03:52:08;25.50;37.50
36652;DHT22;53334;51.976;20.144;2024-01-30T03:54:42;25.50;37.50
36652;DHT22;53334;51.976;20.144;2024-01-30T03:57:15;25.50;37.50
36652;DHT22;53334;51.976;20.144;2024-01-30T03:59:49;25.50;37.40
36652;DHT22;53334;51.976;20.144;2024-01-30T04:02:22;25.50;37.50
36652;DHT22;53334;51.976;20.144;2024-01-30T04:04:55;25.50;37.50
36652;DHT22;53334;51.976;20.144;2024-01-30T04:07:28;25.50;37.50
36652;DHT22;53334;51.976;20.144;2024-01-30T04:10:04;25.50;37.50
36652;DHT22;53334;51.976;20.144;2024-01-30T04:12:38;25.50;37.50
36652;DHT22;53334;51.976;20.144;2024-01-30T04:15:11;25.50;37.50
36652;DHT22;53334;51.976;20.144;2024-01-30T04:17:46;25.50;37.60
36652;DHT22;53334;51.976;20.144;2024-01-30T04:20:19;25.50;37.50
36652;DHT22;53334;51.976;20.144;2024-01-30T04:22:52;25.50;37.50
36652;DHT22;53334;51.976;20.144;2024-01-30T04:25:27;25.50;37.50
36652;DHT22;53334;51.976;20.144;2024-01-30T04:28:00;25.50;37.50
36652;DHT22;53334;51.976;20.144;2024-01-30T04:30:33;25.50;37.40
36652;DHT22;53334;51.976;20.144;2024-01-30T04:33:06;25.50;37.40
36652;DHT22;53334;51.976;20.144;2024-01-30T04:35:40;25.50;37.40
36652;DHT22;53334;51.976;20.144;2024-01-30T04:38:13;25.50;37.40
36652;DHT22;53334;51.976;20.144;2024-01-30T04:41:11;25.50;37.40
36652;DHT22;53334;51.976;20.144;2024-01-30T04:43:44;25.50;37.40
36652;DHT22;53334;51.976;20.144;2024-01-30T04:46:18;25.50;37.40
36652;DHT22;53334;51.976;20.144;2024-01-30T04:48:51;25.50;37.40
36652;DHT22;53334;51.976;20.144;2024-01-30T04:51:24;25.50;37.40
36652;DHT22;53334;51.976;20.144;2024-01-30T04:53:57;25.50;37.40
36652;DHT22;53334;51.976;20.144;2024-01-30T04:56:32;25.50;37.40
36652;DHT22;53334;51.976;20.144;2024-01-30T04:59:06;25.50;37.40
36652;DHT22;53334;51.976;20.144;2024-01-30T05:01:40;25.50;38.00
36652;DHT22;53334;51.976;20.144;2024-01-30T05:04:13;25.50;37.40
36652;DHT22;53334;51.976;20.144;2024-01-30T05:06:48;25.50;37.40
36652;DHT22;53334;51.976;20.144;2024-01-30T05:09:21;25.50;37.40
36652;DHT22;53334;51.976;20.144;2024-01-30T05:11:56;25.50;37.40
36652;DHT22;53334;51.976;20.144;2024-01-30T05:14:30;25.50;37.90
36652;DHT22;53334;51.976;20.144;2024-01-30T05:17:03;25.50;37.30
36652;DHT22;53334;51.976;20.144;2024-01-30T05:19:36;25.50;37.30
36652;DHT22;53334;51.976;20.144;2024-01-30T05:22:10;25.50;37.30
36652;DHT22;53334;51.976;20.144;2024-01-30T05:24:47;25.50;37.30
36652;DHT22;53334;51.976;20.144;2024-01-30T05:27:22;25.50;37.30
36652;DHT22;53334;51.976;20.144;2024-01-30T05:29:55;25.50;37.40
36652;DHT22;53334;51.976;20.144;2024-01-30T05:32:28;25.50;37.40
36652;DHT22;53334;51.976;20.144;2024-01-30T05:35:02;25.50;37.20
36652;DHT22;53334;51.976;20.144;2024-01-30T05:37:35;25.50;37.10
36652;DHT22;53334;51.976;20.144;2024-01-30T05:40:09;25.50;37.20
36652;DHT22;53334;51.976;20.144;2024-01-30T05:42:44;25.50;37.20
36652;DHT22;53334;51.976;20.144;2024-01-30T05:45:17;25.50;37.50
36652;DHT22;53334;51.976;20.144;2024-01-30T05:47:50;25.50;37.50
36652;DHT22;53334;51.976;20.144;2024-01-30T05:50:23;25.50;37.50
36652;DHT22;53334;51.976;20.144;2024-01-30T05:52:58;25.50;37.40
36652;DHT22;53334;51.976;20.144;2024-01-30T05:55:31;25.50;37.30
36652;DHT22;53334;51.976;20.144;2024-01-30T05:58:06;25.50;37.30
36652;DHT22;53334;51.976;20.144;2024-01-30T06:00:39;25.50;37.30
36652;DHT22;53334;51.976;20.144;2024-01-30T06:03:12;25.50;37.30
36652;DHT22;53334;51.976;20.144;2024-01-30T06:05:45;25.50;37.30
36652;DHT22;53334;51.976;20.144;2024-01-30T06:08:19;25.50;37.30
36652;DHT22;53334;51.976;20.144;2024-01-30T06:10:52;25.50;37.30
36652;DHT22;53334;51.976;20.144;2024-01-30T06:13:27;25.50;37.20
36652;DHT22;53334;51.976;20.144;2024-01-30T06:16:02;25.50;37.20
36652;DHT22;53334;51.976;20.144;2024-01-30T06:18:36;25.50;37.20
36652;DHT22;53334;51.976;20.144;2024-01-30T06:21:09;25.60;37.20
36652;DHT22;53334;51.976;20.144;2024-01-30T06:23:44;25.50;37.00
36652;DHT22;53334;51.976;20.144;2024-01-30T06:26:17;25.50;37.00
36652;DHT22;53334;51.976;20.144;2024-01-30T06:28:52;25.50;36.90
36652;DHT22;53334;51.976;20.144;2024-01-30T06:31:25;25.60;37.00
36652;DHT22;53334;51.976;20.144;2024-01-30T06:33:58;25.50;37.00
36652;DHT22;53334;51.976;20.144;2024-01-30T06:36:31;25.50;37.00
36652;DHT22;53334;51.976;20.144;2024-01-30T06:39:05;25.50;37.00
36652;DHT22;53334;51.976;20.144;2024-01-30T06:41:38;25.60;37.10
36652;DHT22;53334;51.976;20.144;2024-01-30T06:44:12;25.50;37.00
36652;DHT22;53334;51.976;20.144;2024-01-30T06:46:46;25.60;37.10
36652;DHT22;53334;51.976;20.144;2024-01-30T06:49:19;25.60;37.20
36652;DHT22;53334;51.976;20.144;2024-01-30T06:51:54;25.60;37.30
36652;DHT22;53334;51.976;20.144;2024-01-30T06:54:27;25.60;37.80
36652;DHT22;53334;51.976;20.144;2024-01-30T06:57:00;25.60;37.90
36652;DHT22;53334;51.976;20.144;2024-01-30T06:59:35;25.60;38.20
36652;DHT22;53334;51.976;20.144;2024-01-30T07:02:08;25.60;38.30
36652;DHT22;53334;51.976;20.144;2024-01-30T07:04:41;25.60;38.40
36652;DHT22;53334;51.976;20.144;2024-01-30T07:07:18;25.60;38.30
36652;DHT22;53334;51.976;20.144;2024-01-30T07:09:51;25.60;38.70
36652;DHT22;53334;51.976;20.144;2024-01-30T07:12:30;25.60;39.20
36652;DHT22;53334;51.976;20.144;2024-01-30T07:15:06;25.60;38.90
36652;DHT22;53334;51.976;20.144;2024-01-30T07:17:40;25.70;39.30
36652;DHT22;53334;51.976;20.144;2024-01-30T07:20:14;25.70;39.20
36652;DHT22;53334;51.976;20.144;2024-01-30T07:22:49;25.70;39.20
36652;DHT22;53334;51.976;20.144;2024-01-30T07:25:23;25.70;39.40
36652;DHT22;53334;51.976;20.144;2024-01-30T07:27:59;25.70;39.40
36652;DHT22;53334;51.976;20.144;2024-01-30T07:30:33;25.70;39.40
36652;DHT22;53334;51.976;20.144;2024-01-30T07:33:06;25.70;39.40
36652;DHT22;53334;51.976;20.144;2024-01-30T07:35:40;25.70;39.40
36652;DHT22;53334;51.976;20.144;2024-01-30T07:38:14;25.80;39.50
36652;DHT22;53334;51.976;20.144;2024-01-30T07:40:47;25.80;39.40
36652;DHT22;53334;51.976;20.144;2024-01-30T07:43:20;25.80;39.20
36652;DHT22;53334;51.976;20.144;2024-01-30T07:45:56;25.80;39.00
36652;DHT22;53334;51.976;20.144;2024-01-30T07:48:29;25.80;38.90
36652;DHT22;53334;51.976;20.144;2024-01-30T07:51:03;25.80;39.00
36652;DHT22;53334;51.976;20.144;2024-01-30T07:53:36;25.80;39.00
36652;DHT22;53334;51.976;20.144;2024-01-30T07:56:09;25.80;39.00
36652;DHT22;53334;51.976;20.144;2024-01-30T07:58:42;25.90;39.00
36652;DHT22;53334;51.976;20.144;2024-01-30T08:01:16;25.80;39.00
36652;DHT22;53334;51.976;20.144;2024-01-30T08:03:49;25.80;39.20
36652;DHT22;53334;51.976;20.144;2024-01-30T08:06:22;25.90;39.70
36652;DHT22;53334;51.976;20.144;2024-01-30T08:08:55;25.80;39.80
36652;DHT22;53334;51.976;20.144;2024-01-30T08:11:30;25.90;39.80
36652;DHT22;53334;51.976;20.144;2024-01-30T08:14:03;25.90;40.00
36652;DHT22;53334;51.976;20.144;2024-01-30T08:16:38;25.90;40.10
36652;DHT22;53334;51.976;20.144;2024-01-30T08:19:11;25.90;40.10
36652;DHT22;53334;51.976;20.144;2024-01-30T08:21:44;25.90;40.20
36652;DHT22;53334;51.976;20.144;2024-01-30T08:24:17;25.90;40.30
36652;DHT22;53334;51.976;20.144;2024-01-30T08:26:50;25.90;40.40
36652;DHT22;53334;51.976;20.144;2024-01-30T08:29:23;25.90;40.40
36652;DHT22;53334;51.976;20.144;2024-01-30T08:31:57;26.00;40.60
36652;DHT22;53334;51.976;20.144;2024-01-30T08:34:31;26.00;40.60
36652;DHT22;53334;51.976;20.144;2024-01-30T08:37:04;26.00;40.60
36652;DHT22;53334;51.976;20.144;2024-01-30T08:39:37;26.00;40.70
36652;DHT22;53334;51.976;20.144;2024-01-30T08:42:10;26.00;41.20
36652;DHT22;53334;51.976;20.144;2024-01-30T08:44:43;26.00;41.30
36652;DHT22;53334;51.976;20.144;2024-01-30T08:47:18;26.00;41.20
36652;DHT22;53334;51.976;20.144;2024-01-30T08:49:51;26.00;41.10
36652;DHT22;53334;51.976;20.144;2024-01-30T08:52:24;26.00;40.90
36652;DHT22;53334;51.976;20.144;2024-01-30T08:54:58;26.00;41.40
36652;DHT22;53334;51.976;20.144;2024-01-30T08:57:31;26.00;40.70
36652;DHT22;53334;51.976;20.144;2024-01-30T09:00:06;26.00;40.70
36652;DHT22;53334;51.976;20.144;2024-01-30T09:02:43;26.00;40.50
36652;DHT22;53334;51.976;20.144;2024-01-30T09:05:16;26.00;40.40
36652;DHT22;53334;51.976;20.144;2024-01-30T09:07:50;26.00;40.30
36652;DHT22;53334;51.976;20.144;2024-01-30T09:10:23;26.00;40.90
36652;DHT22;53334;51.976;20.144;2024-01-30T09:12:56;26.00;40.20
36652;DHT22;53334;51.976;20.144;2024-01-30T09:15:29;26.00;40.10
36652;DHT22;53334;51.976;20.144;2024-01-30T09:18:04;26.00;40.00
36652;DHT22;53334;51.976;20.144;2024-01-30T09:20:37;26.00;39.90
36652;DHT22;53334;51.976;20.144;2024-01-30T09:23:11;26.00;39.80
36652;DHT22;53334;51.976;20.144;2024-01-30T09:25:44;26.00;39.60
36652;DHT22;53334;51.976;20.144;2024-01-30T09:28:17;26.00;39.60
36652;DHT22;53334;51.976;20.144;2024-01-30T09:30:50;26.10;39.50
36652;DHT22;53334;51.976;20.144;2024-01-30T09:33:25;26.10;39.40
36652;DHT22;53334;51.976;20.144;2024-01-30T09:35:58;26.00;39.30
36652;DHT22;53334;51.976;20.144;2024-01-30T09:38:31;26.00;39.20
36652;DHT22;53334;51.976;20.144;2024-01-30T09:41:09;26.00;39.10
36652;DHT22;53334;51.976;20.144;2024-01-30T09:43:47;26.00;39.00
36652;DHT22;53334;51.976;20.144;2024-01-30T09:46:21;26.10;39.00
36652;DHT22;53334;51.976;20.144;2024-01-30T09:48:57;26.00;39.50
36652;DHT22;53334;51.976;20.144;2024-01-30T09:51:31;26.10;38.90
36652;DHT22;53334;51.976;20.144;2024-01-30T09:54:04;26.10;38.80
36652;DHT22;53334;51.976;20.144;2024-01-30T09:56:37;26.00;38.70
36652;DHT22;53334;51.976;20.144;2024-01-30T09:59:10;26.10;38.80
36652;DHT22;53334;51.976;20.144;2024-01-30T10:01:44;26.10;38.70
36652;DHT22;53334;51.976;20.144;2024-01-30T10:04:19;26.00;38.60
36652;DHT22;53334;51.976;20.144;2024-01-30T10:06:52;26.00;38.50
36652;DHT22;53334;51.976;20.144;2024-01-30T10:09:26;26.00;38.50
36652;DHT22;53334;51.976;20.144;2024-01-30T10:11:59;26.10;38.50
36652;DHT22;53334;51.976;20.144;2024-01-30T10:14:32;26.00;38.30
36652;DHT22;53334;51.976;20.144;2024-01-30T10:17:08;26.10;38.30
36652;DHT22;53334;51.976;20.144;2024-01-30T10:19:54;26.00;38.30
36652;DHT22;53334;51.976;20.144;2024-01-30T10:22:27;26.10;38.30
36652;DHT22;53334;51.976;20.144;2024-01-30T10:25:01;26.00;38.10
36652;DHT22;53334;51.976;20.144;2024-01-30T10:27:39;26.10;38.10
36652;DHT22;53334;51.976;20.144;2024-01-30T10:30:13;26.10;38.10
36652;DHT22;53334;51.976;20.144;2024-01-30T10:32:46;26.10;38.00
36652;DHT22;53334;51.976;20.144;2024-01-30T10:35:21;26.10;38.00
36652;DHT22;53334;51.976;20.144;2024-01-30T10:37:56;26.10;35.50
36652;DHT22;53334;51.976;20.144;2024-01-30T10:40:31;26.00;31.30
36652;DHT22;53334;51.976;20.144;2024-01-30T10:43:05;26.00;29.80
36652;DHT22;53334;51.976;20.144;2024-01-30T10:45:40;26.00;30.50
36652;DHT22;53334;51.976;20.144;2024-01-30T10:48:19;25.90;30.80
36652;DHT22;53334;51.976;20.144;2024-01-30T10:50:58;25.90;30.80
36652;DHT22;53334;51.976;20.144;2024-01-30T10:53:33;25.80;30.40
36652;DHT22;53334;51.976;20.144;2024-01-30T10:56:06;25.80;31.50
36652;DHT22;53334;51.976;20.144;2024-01-30T10:58:39;25.80;33.00
36652;DHT22;53334;51.976;20.144;2024-01-30T11:01:13;25.80;31.70
36652;DHT22;53334;51.976;20.144;2024-01-30T11:03:47;25.80;31.90
36652;DHT22;53334;51.976;20.144;2024-01-30T11:06:24;25.80;31.60
36652;DHT22;53334;51.976;20.144;2024-01-30T11:09:01;25.80;31.50
36652;DHT22;53334;51.976;20.144;2024-01-30T11:11:48;25.80;31.70
36652;DHT22;53334;51.976;20.144;2024-01-30T11:14:25;25.80;30.60
36652;DHT22;53334;51.976;20.144;2024-01-30T11:16:58;25.80;31.10
36652;DHT22;53334;51.976;20.144;2024-01-30T11:19:32;25.70;31.40
36652;DHT22;53334;51.976;20.144;2024-01-30T11:22:08;25.80;30.90
36652;DHT22;53334;51.976;20.144;2024-01-30T11:24:47;25.70;30.70
36652;DHT22;53334;51.976;20.144;2024-01-30T11:27:21;25.70;31.10
36652;DHT22;53334;51.976;20.144;2024-01-30T11:30:01;25.70;31.10
36652;DHT22;53334;51.976;20.144;2024-01-30T11:32:35;25.70;31.30
36652;DHT22;53334;51.976;20.144;2024-01-30T11:35:09;25.70;30.70
36652;DHT22;53334;51.976;20.144;2024-01-30T11:37:45;25.70;30.70
36652;DHT22;53334;51.976;20.144;2024-01-30T11:40:21;25.70;30.60
36652;DHT22;53334;51.976;20.144;2024-01-30T11:42:54;25.70;30.20
36652;DHT22;53334;51.976;20.144;2024-01-30T11:45:28;25.70;31.60
36652;DHT22;53334;51.976;20.144;2024-01-30T11:48:02;25.70;31.10
36652;DHT22;53334;51.976;20.144;2024-01-30T11:50:38;25.70;31.10
36652;DHT22;53334;51.976;20.144;2024-01-30T11:53:13;25.70;30.30
36652;DHT22;53334;51.976;20.144;2024-01-30T11:55:50;25.60;30.10
36652;DHT22;53334;51.976;20.144;2024-01-30T11:58:25;25.60;30.10
36652;DHT22;53334;51.976;20.144;2024-01-30T12:00:58;25.60;30.30
36652;DHT22;53334;51.976;20.144;2024-01-30T12:03:32;25.60;30.10
36652;DHT22;53334;51.976;20.144;2024-01-30T12:06:05;25.60;30.00
36652;DHT22;53334;51.976;20.144;2024-01-30T12:08:40;25.60;30.00
36652;DHT22;53334;51.976;20.144;2024-01-30T12:11:13;25.60;30.60
36652;DHT22;53334;51.976;20.144;2024-01-30T12:13:46;25.60;30.20
36652;DHT22;53334;51.976;20.144;2024-01-30T12:16:20;25.60;30.50
36652;DHT22;53334;51.976;20.144;2024-01-30T12:18:59;25.60;30.50
36652;DHT22;53334;51.976;20.144;2024-01-30T12:21:34;25.60;31.00
36652;DHT22;53334;51.976;20.144;2024-01-30T12:24:10;25.60;30.50
36652;DHT22;53334;51.976;20.144;2024-01-30T12:29:41;25.60;30.50
36652;DHT22;53334;51.976;20.144;2024-01-30T12:32:15;25.60;30.50
36652;DHT22;53334;51.976;20.144;2024-01-30T12:34:48;25.60;30.10
36652;DHT22;53334;51.976;20.144;2024-01-30T12:37:32;25.50;31.70
36652;DHT22;53334;51.976;20.144;2024-01-30T12:40:07;25.50;30.10
36652;DHT22;53334;51.976;20.144;2024-01-30T12:42:41;25.50;29.80
36652;DHT22;53334;51.976;20.144;2024-01-30T12:45:15;25.50;29.50
36652;DHT22;53334;51.976;20.144;2024-01-30T12:47:52;25.50;30.00
36652;DHT22;53334;51.976;20.144;2024-01-30T12:50:25;25.50;29.80
36652;DHT22;53334;51.976;20.144;2024-01-30T12:52:59;25.50;30.00
36652;DHT22;53334;51.976;20.144;2024-01-30T12:55:33;25.50;29.40
36652;DHT22;53334;51.976;20.144;2024-01-30T12:58:07;25.50;29.40
36652;DHT22;53334;51.976;20.144;2024-01-30T13:00:40;25.50;29.40
36652;DHT22;53334;51.976;20.144;2024-01-30T13:03:14;25.50;29.80
36652;DHT22;53334;51.976;20.144;2024-01-30T13:05:48;25.50;29.90
36652;DHT22;53334;51.976;20.144;2024-01-30T13:08:21;25.50;29.50
36652;DHT22;53334;51.976;20.144;2024-01-30T13:10:56;25.50;29.40
36652;DHT22;53334;51.976;20.144;2024-01-30T13:13:30;25.50;29.10
36652;DHT22;53334;51.976;20.144;2024-01-30T13:16:04;25.50;29.50
36652;DHT22;53334;51.976;20.144;2024-01-30T13:18:37;25.50;29.30
36652;DHT22;53334;51.976;20.144;2024-01-30T13:21:11;25.40;29.70
36652;DHT22;53334;51.976;20.144;2024-01-30T13:23:44;25.40;29.70
36652;DHT22;53334;51.976;20.144;2024-01-30T13:26:19;25.40;29.80
36652;DHT22;53334;51.976;20.144;2024-01-30T13:28:52;25.40;29.90
36652;DHT22;53334;51.976;20.144;2024-01-30T13:31:25;25.40;29.80
36652;DHT22;53334;51.976;20.144;2024-01-30T13:33:59;25.40;30.00
36652;DHT22;53334;51.976;20.144;2024-01-30T13:36:34;25.40;29.70
36652;DHT22;53334;51.976;20.144;2024-01-30T13:39:08;25.40;29.60
36652;DHT22;53334;51.976;20.144;2024-01-30T13:41:43;25.40;29.40
36652;DHT22;53334;51.976;20.144;2024-01-30T13:44:16;25.40;31.10
36652;DHT22;53334;51.976;20.144;2024-01-30T13:46:50;25.40;30.10
36652;DHT22;53334;51.976;20.144;2024-01-30T13:49:23;25.40;30.10
36652;DHT22;53334;51.976;20.144;2024-01-30T13:51:56;25.40;30.00
36652;DHT22;53334;51.976;20.144;2024-01-30T13:54:30;25.40;29.90
36652;DHT22;53334;51.976;20.144;2024-01-30T13:57:05;25.30;29.80
36652;DHT22;53334;51.976;20.144;2024-01-30T13:59:39;25.30;29.60
36652;DHT22;53334;51.976;20.144;2024-01-30T14:02:12;25.30;29.90
36652;DHT22;53334;51.976;20.144;2024-01-30T14:04:46;25.40;30.20
36652;DHT22;53334;51.976;20.144;2024-01-30T14:07:19;25.30;30.00
36652;DHT22;53334;51.976;20.144;2024-01-30T14:09:52;25.30;30.20
36652;DHT22;53334;51.976;20.144;2024-01-30T14:12:27;25.30;30.00
36652;DHT22;53334;51.976;20.144;2024-01-30T14:15:02;25.30;30.30
36652;DHT22;53334;51.976;20.144;2024-01-30T14:17:50;25.30;30.30
36652;DHT22;53334;51.976;20.144;2024-01-30T14:20:23;25.30;30.50
36652;DHT22;53334;51.976;20.144;2024-01-30T14:22:56;25.30;30.50
36652;DHT22;53334;51.976;20.144;2024-01-30T14:25:30;25.30;30.80
36652;DHT22;53334;51.976;20.144;2024-01-30T14:28:06;25.30;30.60
36652;DHT22;53334;51.976;20.144;2024-01-30T14:30:39;25.30;29.80
36652;DHT22;53334;51.976;20.144;2024-01-30T14:33:13;25.30;30.10
36652;DHT22;53334;51.976;20.144;2024-01-30T14:35:46;25.30;30.20
36652;DHT22;53334;51.976;20.144;2024-01-30T14:38:19;25.30;30.40
36652;DHT22;53334;51.976;20.144;2024-01-30T14:40:52;25.30;30.30
36652;DHT22;53334;51.976;20.144;2024-01-30T14:43:27;25.30;30.70
36652;DHT22;53334;51.976;20.144;2024-01-30T14:46:01;25.30;30.80
36652;DHT22;53334;51.976;20.144;2024-01-30T14:48:34;25.30;30.80
36652;DHT22;53334;51.976;20.144;2024-01-30T14:51:08;25.30;30.90
36652;DHT22;53334;51.976;20.144;2024-01-30T14:53:41;25.30;31.20
36652;DHT22;53334;51.976;20.144;2024-01-30T14:56:14;25.40;31.30
36652;DHT22;53334;51.976;20.144;2024-01-30T14:58:49;25.40;31.70
36652;DHT22;53334;51.976;20.144;2024-01-30T15:01:22;25.40;32.00
36652;DHT22;53334;51.976;20.144;2024-01-30T15:03:55;25.40;32.20
36652;DHT22;53334;51.976;20.144;2024-01-30T15:06:29;25.40;32.40
36652;DHT22;53334;51.976;20.144;2024-01-30T15:09:03;25.40;33.10
36652;DHT22;53334;51.976;20.144;2024-01-30T15:11:36;25.40;33.10
36652;DHT22;53334;51.976;20.144;2024-01-30T15:14:11;25.40;33.20
36652;DHT22;53334;51.976;20.144;2024-01-30T15:16:45;25.40;33.30
36652;DHT22;53334;51.976;20.144;2024-01-30T15:19:18;25.40;33.40
36652;DHT22;53334;51.976;20.144;2024-01-30T15:21:51;25.40;33.30
36652;DHT22;53334;51.976;20.144;2024-01-30T15:24:25;25.40;33.40
36652;DHT22;53334;51.976;20.144;2024-01-30T15:26:58;25.40;33.30
36652;DHT22;53334;51.976;20.144;2024-01-30T15:29:32;25.40;33.40
36652;DHT22;53334;51.976;20.144;2024-01-30T15:32:06;25.40;33.40
36652;DHT22;53334;51.976;20.144;2024-01-30T15:34:39;25.40;33.40
36652;DHT22;53334;51.976;20.144;2024-01-30T15:37:12;25.40;33.40
36652;DHT22;53334;51.976;20.144;2024-01-30T15:39:46;25.40;33.50
36652;DHT22;53334;51.976;20.144;2024-01-30T15:42:19;25.40;33.50
36652;DHT22;53334;51.976;20.144;2024-01-30T15:44:54;25.40;33.50
36652;DHT22;53334;51.976;20.144;2024-01-30T15:47:27;25.40;33.60
36652;DHT22;53334;51.976;20.144;2024-01-30T15:50:01;25.40;33.60
36652;DHT22;53334;51.976;20.144;2024-01-30T15:52:34;25.40;33.50
36652;DHT22;53334;51.976;20.144;2024-01-30T15:55:08;25.40;34.10
36652;DHT22;53334;51.976;20.144;2024-01-30T15:57:41;25.40;33.60
36652;DHT22;53334;51.976;20.144;2024-01-30T16:00:16;25.40;33.60